Time;durP1;ratioP1;P1;durP2;ratioP2;P2;SDS_P1;SDS_P2;PMS_P1;PMS_P2;Temp;Humidity;BMP_temperature;BMP_pressure;BME280_temperature;BME280_humidity;BME280_pressure;Samples;Min_cycle;Max_cycle;Signal;HPM_P1;HPM_P2
2021/03/14 00:02:14;;;;;;;18.15;4.00;;;12.00;99.90;;;;;;6245363;23;20015;-79
2021/03/14 00:04:41;;;;;;;14.38;3.50;;;12.00;99.90;;;;;;6244466;23;20001;-79
2021/03/14 00:07:07;;;;;;;26.83;4.82;;;12.00;99.90;;;;;;6217140;23;20030;-79
2021/03/14 00:09:33;;;;;;;21.23;4.22;;;12.00;99.90;;;;;;6244515;23;20000;-79
2021/03/14 00:11:59;;;;;;;23.88;3.92;;;12.00;99.90;;;;;;6244778;23;20000;-79
2021/03/14 00:14:25;;;;;;;14.57;3.50;;;12.00;99.90;;;;;;6244479;23;20079;-81
2021/03/14 00:16:52;;;;;;;26.23;4.50;;;11.90;99.90;;;;;;6244221;23;20350;-80
2021/03/14 00:19:18;;;;;;;15.38;3.70;;;11.90;99.90;;;;;;6245147;23;20000;-80
2021/03/14 00:21:44;;;;;;;26.90;3.83;;;11.90;99.90;;;;;;6245095;23;20000;-75
2021/03/14 00:24:09;;;;;;;18.38;3.75;;;11.90;99.90;;;;;;6244743;23;20003;-77
2021/03/14 00:26:35;;;;;;;20.55;4.32;;;11.90;99.90;;;;;;6244437;23;20019;-82
2021/03/14 00:29:01;;;;;;;33.28;3.80;;;11.90;99.90;;;;;;6244920;23;20000;-81
2021/03/14 00:31:27;;;;;;;18.88;3.67;;;11.90;99.90;;;;;;6244877;23;20023;-81
2021/03/14 00:33:52;;;;;;;24.58;3.75;;;11.80;99.90;;;;;;6217983;23;20307;-78
2021/03/14 00:36:18;;;;;;;16.90;3.47;;;11.90;99.90;;;;;;6244792;23;20000;-81
2021/03/14 00:38:44;;;;;;;10.48;3.53;;;11.90;99.90;;;;;;6244783;23;20076;-80
2021/03/14 00:41:11;;;;;;;19.40;5.32;;;11.80;99.90;;;;;;6244894;23;20008;-78
2021/03/14 00:43:37;;;;;;;25.13;4.50;;;11.80;99.90;;;;;;6244501;23;20050;-79
2021/03/14 00:46:03;;;;;;;19.08;3.80;;;11.80;99.90;;;;;;6244479;23;20008;-79
2021/03/14 00:48:28;;;;;;;18.50;3.85;;;11.80;99.90;;;;;;6244757;23;20325;-80
2021/03/14 00:50:54;;;;;;;23.05;3.67;;;11.80;99.90;;;;;;6245185;23;20004;-80
2021/03/14 00:53:20;;;;;;;20.23;3.88;;;11.80;99.90;;;;;;6244288;23;20004;-79
2021/03/14 00:55:46;;;;;;;23.70;3.60;;;11.90;99.90;;;;;;6244162;23;20440;-79
2021/03/14 00:58:12;;;;;;;20.55;3.97;;;11.90;99.90;;;;;;6244578;23;20022;-80
2021/03/14 01:00:37;;;;;;;27.25;4.22;;;11.90;99.90;;;;;;6244696;23;20071;-79
2021/03/14 01:03:04;;;;;;;22.55;4.00;;;11.90;99.90;;;;;;6244267;23;20027;-80
2021/03/14 01:05:30;;;;;;;19.60;4.05;;;11.90;99.90;;;;;;6244235;23;20336;-77
2021/03/14 01:07:56;;;;;;;21.75;4.50;;;11.90;99.90;;;;;;6244361;23;20004;-78
2021/03/14 01:10:21;;;;;;;25.98;4.35;;;11.90;99.90;;;;;;6244083;23;20000;-81
2021/03/14 01:12:47;;;;;;;23.85;4.45;;;11.90;99.90;;;;;;6244447;23;19996;-78
2021/03/14 01:15:15;;;;;;;23.63;4.43;;;11.90;99.90;;;;;;6244588;23;20405;-77
2021/03/14 01:17:42;;;;;;;17.77;3.67;;;11.90;99.90;;;;;;6244379;23;20019;-77
2021/03/14 01:20:11;;;;;;;21.50;3.78;;;12.00;99.90;;;;;;6244506;23;20024;-80
2021/03/14 01:22:37;;;;;;;23.80;4.07;;;11.90;99.90;;;;;;6244348;23;20007;-80
2021/03/14 01:25:05;;;;;;;25.25;4.50;;;11.90;99.90;;;;;;6244056;23;19997;-79
2021/03/14 01:27:30;;;;;;;20.17;4.50;;;11.90;99.90;;;;;;6244411;23;20079;-79
2021/03/14 01:29:56;;;;;;;32.05;5.57;;;11.90;99.90;;;;;;6244652;23;20389;-80
2021/03/14 01:32:22;;;;;;;19.55;4.18;;;11.90;99.90;;;;;;6244588;23;20038;-79
2021/03/14 01:34:48;;;;;;;25.25;4.25;;;11.80;99.90;;;;;;6244490;23;19997;-76
2021/03/14 01:37:15;;;;;;;33.38;4.75;;;11.80;99.90;;;;;;6244489;23;20564;-77
2021/03/14 01:39:41;;;;;;;23.38;4.97;;;11.80;99.90;;;;;;6244232;23;20011;-80
2021/03/14 01:42:07;;;;;;;31.80;4.60;;;11.80;99.90;;;;;;6243631;23;20004;-79
2021/03/14 01:44:32;;;;;;;27.60;4.53;;;11.80;99.90;;;;;;6243630;23;20022;-79
2021/03/14 01:46:59;;;;;;;26.73;3.85;;;11.80;99.90;;;;;;6244035;23;20011;-81
2021/03/14 01:49:24;;;;;;;23.10;4.40;;;11.80;99.90;;;;;;6244157;23;20484;-78
2021/03/14 01:51:50;;;;;;;20.55;4.40;;;11.80;99.90;;;;;;6243829;23;20031;-80
2021/03/14 01:54:16;;;;;;;21.90;4.95;;;11.80;99.90;;;;;;6244105;23;20004;-79
2021/03/14 01:56:42;;;;;;;33.85;5.50;;;11.80;99.90;;;;;;6217013;23;20012;-79
2021/03/14 01:59:08;;;;;;;19.17;4.13;;;11.80;99.90;;;;;;6244539;23;20414;-75
2021/03/14 02:01:34;;;;;;;22.45;4.22;;;11.80;99.90;;;;;;6244317;23;20015;-79
2021/03/14 02:03:59;;;;;;;24.23;4.60;;;11.70;99.90;;;;;;6243319;23;19996;-79
2021/03/14 02:06:25;;;;;;;23.15;4.00;;;11.70;99.90;;;;;;6217582;23;20032;-80
2021/03/14 02:08:51;;;;;;;20.70;5.07;;;11.70;99.90;;;;;;6244297;23;20028;-81
2021/03/14 02:11:18;;;;;;;22.83;3.88;;;11.70;99.90;;;;;;6244344;23;20050;-82
2021/03/14 02:13:49;;;;;;;19.48;4.07;;;11.70;99.90;;;;;;6244173;23;20000;-80
2021/03/14 02:16:21;;;;;;;23.98;4.28;;;11.70;99.90;;;;;;6244427;23;20066;-81
2021/03/14 02:18:55;;;;;;;28.48;4.57;;;11.70;99.90;;;;;;6244051;23;20382;-78
2021/03/14 02:21:21;;;;;;;32.30;5.50;;;11.70;99.90;;;;;;6243938;23;20000;-81
2021/03/14 02:23:55;;;;;;;31.17;4.97;;;11.70;99.90;;;;;;6244569;23;20004;-81
2021/03/14 02:26:29;;;;;;;21.75;3.92;;;11.70;99.90;;;;;;6244120;23;20000;-82
2021/03/14 02:28:55;;;;;;;26.92;4.22;;;11.70;99.90;;;;;;6243873;23;20336;-81
2021/03/14 02:31:25;;;;;;;18.73;3.95;;;11.70;99.90;;;;;;6244559;23;20008;-81
2021/03/14 02:34:13;;;;;;;22.77;3.75;;;11.70;99.90;;;;;;6244245;23;20001;-82
2021/03/14 02:36:41;;;;;;;31.27;4.03;;;11.70;99.90;;;;;;6244022;23;20028;-80
2021/03/14 02:39:11;;;;;;;22.00;4.78;;;11.70;99.90;;;;;;6243963;23;20032;-81
2021/03/14 02:41:38;;;;;;;23.42;4.75;;;11.70;99.90;;;;;;6243807;23;20004;-79
2021/03/14 02:44:05;;;;;;;33.50;5.82;;;11.70;99.90;;;;;;6243246;23;20028;-78
2021/03/14 02:46:31;;;;;;;21.85;5.13;;;11.70;99.90;;;;;;6243271;23;20059;-79
2021/03/14 02:48:59;;;;;;;18.83;4.82;;;11.60;99.90;;;;;;6244184;23;20007;-79
2021/03/14 02:51:26;;;;;;;21.92;4.15;;;11.60;99.90;;;;;;6245763;23;20426;-78
2021/03/14 02:53:52;;;;;;;21.20;3.90;;;11.60;99.90;;;;;;6246444;23;20078;-82
2021/03/14 02:56:18;;;;;;;28.08;4.60;;;11.60;99.90;;;;;;6245591;23;20453;-79
2021/03/14 02:58:45;;;;;;;26.90;4.20;;;11.60;99.90;;;;;;6218886;23;20019;-79
2021/03/14 03:01:12;;;;;;;21.33;3.58;;;11.60;99.90;;;;;;6218991;23;20008;-79
2021/03/14 03:03:39;;;;;;;23.00;4.50;;;11.60;99.90;;;;;;6246155;23;20032;-80
2021/03/14 03:06:05;;;;;;;19.90;3.78;;;11.60;99.90;;;;;;6246033;23;20051;-80
2021/03/14 03:08:32;;;;;;;16.00;3.88;;;11.60;99.90;;;;;;6245758;23;20000;-80
2021/03/14 03:11:03;;;;;;;27.38;4.63;;;11.60;99.90;;;;;;6245515;23;20080;-78
2021/03/14 03:13:29;;;;;;;23.90;5.30;;;11.70;99.90;;;;;;6245924;23;20004;-79
2021/03/14 03:15:59;;;;;;;24.35;4.85;;;11.70;99.90;;;;;;6245836;23;20032;-79
2021/03/14 03:18:25;;;;;;;21.83;3.80;;;11.60;99.90;;;;;;6245331;23;20491;-79
2021/03/14 03:20:54;;;;;;;27.27;4.07;;;11.60;99.90;;;;;;6245282;23;20004;-79
2021/03/14 03:23:20;;;;;;;29.55;4.82;;;11.60;99.90;;;;;;6219018;23;20224;-79
2021/03/14 03:25:46;;;;;;;22.23;4.55;;;11.60;99.90;;;;;;6218892;23;20723;-79
2021/03/14 03:28:13;;;;;;;26.98;4.85;;;11.50;99.90;;;;;;6245753;23;20000;-80
2021/03/14 03:30:40;;;;;;;23.83;4.10;;;11.50;99.90;;;;;;6245019;23;20655;-80
2021/03/14 03:33:06;;;;;;;28.98;4.60;;;11.50;99.90;;;;;;6245487;23;20074;-79
2021/03/14 03:35:32;;;;;;;19.85;4.30;;;11.50;99.90;;;;;;6245463;23;20528;-80
2021/03/14 03:37:58;;;;;;;26.92;4.30;;;11.50;99.90;;;;;;6218706;23;20342;-80
2021/03/14 03:40:28;;;;;;;21.60;4.25;;;11.50;99.90;;;;;;6244863;23;20005;-79
2021/03/14 03:43:12;;;;;;;33.97;5.05;;;11.50;99.90;;;;;;6245288;23;20000;-81
2021/03/14 03:45:42;;;;;;;26.25;4.30;;;11.60;99.90;;;;;;6245286;23;20123;-80
2021/03/14 03:48:12;;;;;;;22.88;4.65;;;11.60;99.90;;;;;;6245036;23;20028;-80
2021/03/14 03:50:38;;;;;;;18.83;3.90;;;11.60;99.90;;;;;;6244713;23;20000;-80
2021/03/14 03:53:05;;;;;;;40.85;5.40;;;11.60;99.90;;;;;;6245183;23;20004;-80
2021/03/14 03:55:32;;;;;;;24.58;4.72;;;11.70;99.90;;;;;;6245084;23;20046;-81
2021/03/14 03:57:58;;;;;;;17.10;3.72;;;11.70;99.90;;;;;;6245108;23;20069;-81
2021/03/14 04:00:24;;;;;;;26.27;4.53;;;11.60;99.90;;;;;;6245050;23;20011;-80
2021/03/14 04:02:51;;;;;;;21.90;4.30;;;11.60;99.90;;;;;;6245331;23;20326;-79
2021/03/14 04:05:18;;;;;;;22.92;4.45;;;11.60;99.90;;;;;;6245357;23;20438;-78
2021/03/14 04:07:49;;;;;;;38.88;5.05;;;11.60;99.90;;;;;;6245654;23;20007;-79
2021/03/14 04:10:19;;;;;;;36.83;4.75;;;11.60;99.90;;;;;;6244687;23;20004;-79
2021/03/14 04:12:48;;;;;;;17.02;3.97;;;11.60;99.90;;;;;;6244541;23;20000;-81
2021/03/14 04:15:17;;;;;;;27.73;5.03;;;11.70;99.90;;;;;;6245163;23;20448;-80
2021/03/14 04:17:43;;;;;;;27.67;5.22;;;11.60;99.90;;;;;;6245058;23;20416;-80
2021/03/14 04:20:15;;;;;;;23.10;3.78;;;11.60;99.90;;;;;;6245160;23;20008;-80
2021/03/14 04:22:43;;;;;;;26.73;3.65;;;11.60;99.90;;;;;;6244592;23;19997;-79
2021/03/14 04:25:11;;;;;;;24.17;4.78;;;11.60;99.90;;;;;;6244208;23;20004;-78
2021/03/14 04:27:37;;;;;;;22.13;5.22;;;11.60;99.90;;;;;;6245241;23;20310;-79
2021/03/14 04:30:05;;;;;;;20.02;4.10;;;11.60;99.90;;;;;;6244837;23;20015;-80
2021/03/14 04:32:31;;;;;;;17.27;4.07;;;11.60;99.90;;;;;;6244427;23;20000;-79
2021/03/14 04:34:58;;;;;;;20.60;3.63;;;11.70;99.90;;;;;;6245228;23;20004;-80
2021/03/14 04:37:24;;;;;;;27.23;4.40;;;11.70;99.90;;;;;;6244400;23;20016;-78
2021/03/14 04:39:52;;;;;;;16.13;4.30;;;11.70;99.90;;;;;;6244490;23;20000;-80
2021/03/14 04:42:18;;;;;;;28.40;4.82;;;11.70;99.90;;;;;;6244820;23;20007;-79
2021/03/14 04:44:46;;;;;;;19.92;4.65;;;11.70;99.90;;;;;;6244936;23;20016;-81
2021/03/14 04:47:11;;;;;;;20.25;5.00;;;11.70;99.90;;;;;;6244789;23;20325;-78
2021/03/14 04:49:37;;;;;;;23.77;4.55;;;11.60;99.90;;;;;;6244981;23;20004;-81
2021/03/14 04:52:05;;;;;;;23.83;4.15;;;11.60;99.90;;;;;;6244037;23;20026;-82
2021/03/14 04:54:31;;;;;;;13.43;3.80;;;11.60;99.90;;;;;;6245177;23;19996;-81
2021/03/14 04:56:58;;;;;;;22.48;4.38;;;11.50;99.90;;;;;;6244729;23;20011;-80
2021/03/14 04:59:24;;;;;;;17.77;3.55;;;11.60;99.90;;;;;;6244627;23;20326;-81
2021/03/14 05:01:51;;;;;;;21.05;4.07;;;11.60;99.90;;;;;;6244459;23;20004;-81
2021/03/14 05:04:19;;;;;;;20.65;4.53;;;11.60;99.90;;;;;;6244692;23;20071;-80
2021/03/14 05:06:46;;;;;;;18.38;3.83;;;11.60;99.90;;;;;;6244918;23;20422;-79
2021/03/14 05:09:14;;;;;;;20.63;3.38;;;11.60;99.90;;;;;;6244506;23;19996;-82
2021/03/14 05:11:42;;;;;;;18.52;3.72;;;11.60;99.90;;;;;;6244234;23;20008;-78
2021/03/14 05:14:09;;;;;;;12.45;4.00;;;11.60;99.90;;;;;;6244421;23;20032;-80
2021/03/14 05:16:36;;;;;;;19.90;3.55;;;11.60;99.90;;;;;;6244560;23;20008;-81
2021/03/14 05:19:03;;;;;;;24.15;4.18;;;11.60;99.90;;;;;;6244724;23;20433;-81
2021/03/14 05:21:30;;;;;;;20.48;4.15;;;11.60;99.90;;;;;;6244635;23;20000;-81
2021/03/14 05:23:57;;;;;;;23.52;3.67;;;11.70;99.90;;;;;;6244646;23;19996;-80
2021/03/14 05:26:23;;;;;;;20.38;3.55;;;11.60;99.90;;;;;;6244138;23;20000;-80
2021/03/14 05:28:50;;;;;;;22.95;4.25;;;11.60;99.90;;;;;;6244412;23;20413;-79
2021/03/14 05:31:32;;;;;;;29.27;4.80;;;11.60;99.90;;;;;;6244539;23;20004;-82
2021/03/14 05:34:00;;;;;;;18.38;4.45;;;11.60;99.90;;;;;;6244384;23;20376;-81
2021/03/14 05:36:26;;;;;;;19.00;3.35;;;11.70;99.90;;;;;;6244517;23;19996;-81
2021/03/14 05:38:54;;;;;;;22.27;4.82;;;11.70;99.90;;;;;;6244008;23;20008;-80
2021/03/14 05:41:20;;;;;;;11.38;3.13;;;11.70;99.90;;;;;;6243540;23;20329;-78
2021/03/14 05:43:47;;;;;;;19.27;3.50;;;11.60;99.90;;;;;;6243887;23;20026;-81
2021/03/14 05:46:13;;;;;;;29.00;4.07;;;11.70;99.90;;;;;;6244242;23;20027;-82
2021/03/14 05:48:41;;;;;;;15.15;3.50;;;11.70;99.90;;;;;;6244320;23;20053;-80
2021/03/14 05:51:07;;;;;;;18.25;3.83;;;11.70;99.90;;;;;;6244093;23;20004;-82
2021/03/14 05:53:36;;;;;;;17.92;4.13;;;11.70;99.90;;;;;;6244604;23;20080;-80
2021/03/14 05:56:02;;;;;;;17.98;3.60;;;11.60;99.90;;;;;;6217485;23;20018;-79
2021/03/14 05:58:28;;;;;;;28.17;3.85;;;11.70;99.90;;;;;;6244101;23;20004;-79
2021/03/14 06:00:55;;;;;;;17.77;3.38;;;11.70;99.90;;;;;;6243793;23;19999;-80
2021/03/14 06:03:21;;;;;;;26.65;5.00;;;11.70;99.90;;;;;;6243909;23;20000;-83
2021/03/14 06:05:47;;;;;;;25.35;4.43;;;11.70;99.90;;;;;;6244086;23;20011;-80
2021/03/14 06:08:13;;;;;;;28.27;4.88;;;11.70;99.90;;;;;;6244269;23;19992;-80
2021/03/14 06:10:39;;;;;;;25.45;4.90;;;11.70;99.90;;;;;;6244185;23;20011;-79
2021/03/14 06:13:06;;;;;;;21.13;4.50;;;11.80;99.90;;;;;;6244314;23;19996;-79
2021/03/14 06:15:32;;;;;;;20.73;4.35;;;11.80;99.90;;;;;;6243813;23;20010;-81
2021/03/14 06:17:59;;;;;;;18.67;3.58;;;11.80;99.90;;;;;;6243653;23;20079;-80
2021/03/14 06:20:42;;;;;;;20.63;3.72;;;11.80;99.90;;;;;;6244323;23;19996;-81
2021/03/14 06:23:12;;;;;;;22.98;3.75;;;11.80;99.90;;;;;;6244350;23;20014;-82
2021/03/14 06:25:40;;;;;;;22.73;3.45;;;11.80;99.90;;;;;;6244156;23;20000;-79
2021/03/14 06:28:07;;;;;;;27.45;5.63;;;11.80;99.90;;;;;;6246263;23;20079;-80
2021/03/14 06:30:34;;;;;;;24.98;3.95;;;11.90;99.90;;;;;;6245593;23;20012;-79
2021/03/14 06:33:16;;;;;;;20.95;4.07;;;11.90;99.90;;;;;;6246544;23;20035;-78
2021/03/14 06:35:54;;;;;;;15.95;3.35;;;11.90;99.90;;;;;;6246359;23;20023;-77
2021/03/14 06:38:33;;;;;;;16.85;4.22;;;11.90;99.90;;;;;;6246148;23;20012;-81
2021/03/14 06:41:02;;;;;;;25.80;3.83;;;11.90;99.90;;;;;;6246185;23;20001;-79
2021/03/14 06:43:35;;;;;;;25.95;4.65;;;12.00;99.90;;;;;;6246273;23;20004;-78
2021/03/14 06:46:16;;;;;;;20.13;3.40;;;12.00;99.90;;;;;;6245994;23;20007;-81
2021/03/14 06:48:42;;;;;;;20.55;3.97;;;12.10;99.90;;;;;;6246121;23;20001;-81
2021/03/14 06:51:08;;;;;;;16.50;3.78;;;12.20;99.90;;;;;;6246076;23;20054;-81
2021/03/14 06:53:33;;;;;;;18.88;3.63;;;12.20;99.90;;;;;;6246273;23;20069;-80
2021/03/14 06:56:06;;;;;;;19.92;3.60;;;12.20;99.90;;;;;;6245606;23;20428;-81
2021/03/14 06:58:36;;;;;;;16.52;3.47;;;12.20;99.90;;;;;;6245063;23;20012;-81
2021/03/14 07:01:15;;;;;;;17.17;3.22;;;12.20;99.90;;;;;;6245779;23;20003;-81
2021/03/14 07:03:54;;;;;;;19.30;4.00;;;12.30;99.90;;;;;;6245791;23;20004;-81
2021/03/14 07:06:25;;;;;;;22.70;5.15;;;12.30;99.90;;;;;;6245918;23;20464;-81
2021/03/14 07:08:54;;;;;;;21.48;3.60;;;12.30;99.90;;;;;;6245731;23;20004;-80
2021/03/14 07:11:39;;;;;;;18.70;3.63;;;12.40;99.90;;;;;;6245090;23;20000;-80
2021/03/14 07:14:09;;;;;;;20.50;4.43;;;12.40;99.90;;;;;;6245902;23;20083;-80
2021/03/14 07:16:47;;;;;;;18.90;3.60;;;12.40;99.90;;;;;;6245395;23;20083;-82
2021/03/14 07:19:15;;;;;;;19.65;3.78;;;12.40;99.90;;;;;;6218905;23;20091;-81
2021/03/14 07:21:41;;;;;;;22.65;3.72;;;12.40;99.90;;;;;;6245799;23;20004;-79
2021/03/14 07:24:13;;;;;;;18.17;3.63;;;12.30;99.90;;;;;;6245466;23;20024;-82
2021/03/14 07:26:46;;;;;;;19.80;3.85;;;12.40;99.90;;;;;;6245430;23;20027;-83
2021/03/14 07:29:13;;;;;;;23.77;3.83;;;12.40;99.90;;;;;;6245645;23;20035;-79
2021/03/14 07:31:39;;;;;;;39.78;17.98;;;12.50;99.90;;;;;;6245533;23;20325;-82
2021/03/14 07:34:06;;;;;;;26.92;9.27;;;12.50;99.90;;;;;;6245537;23;20015;-79
2021/03/14 07:36:33;;;;;;;30.27;9.85;;;12.50;99.90;;;;;;6244499;23;19996;-80
2021/03/14 07:38:59;;;;;;;18.48;5.55;;;12.60;99.90;;;;;;6245353;23;20023;-81
2021/03/14 07:41:26;;;;;;;17.88;4.00;;;12.60;99.90;;;;;;6245806;23;20411;-78
2021/03/14 07:43:53;;;;;;;21.00;3.67;;;12.70;99.90;;;;;;6245187;23;20019;-79
2021/03/14 07:46:23;;;;;;;18.08;4.28;;;12.80;99.90;;;;;;6245075;23;20377;-79
2021/03/14 07:48:51;;;;;;;16.83;4.38;;;12.80;99.90;;;;;;6218392;23;20036;-80
2021/03/14 07:51:22;;;;;;;14.23;3.03;;;13.00;99.90;;;;;;6245191;23;20377;-78
2021/03/14 07:53:50;;;;;;;14.90;3.30;;;13.20;99.90;;;;;;6245560;23;20000;-80
2021/03/14 07:56:16;;;;;;;22.52;5.20;;;13.30;99.90;;;;;;6245111;23;20079;-79
2021/03/14 07:58:42;;;;;;;19.65;7.57;;;13.30;99.90;;;;;;6244669;23;20035;-79
2021/03/14 08:01:28;;;;;;;13.07;4.95;;;13.40;99.90;;;;;;6244828;23;20078;-79
2021/03/14 08:03:56;;;;;;;25.75;6.95;;;13.30;99.90;;;;;;6218339;23;20442;-79
2021/03/14 08:06:43;;;;;;;19.38;4.90;;;13.40;99.90;;;;;;6245018;23;20000;-79
2021/03/14 08:09:09;;;;;;;19.60;3.67;;;13.50;99.90;;;;;;6217315;23;20509;-80
2021/03/14 08:11:34;;;;;;;24.95;4.72;;;13.50;99.90;;;;;;6243678;23;20035;-76
2021/03/14 08:14:00;;;;;;;16.23;3.30;;;13.60;99.90;;;;;;6244320;23;20001;-77
2021/03/14 08:16:26;;;;;;;26.17;4.18;;;13.60;99.90;;;;;;6243927;23;20000;-79
2021/03/14 08:18:54;;;;;;;15.43;3.47;;;13.70;99.90;;;;;;6242885;23;20035;-79
2021/03/14 08:21:42;;;;;;;20.58;3.55;;;13.80;99.90;;;;;;6244619;23;20000;-75
2021/03/14 08:24:11;;;;;;;12.80;3.33;;;13.70;99.90;;;;;;6244028;23;20004;-74
2021/03/14 08:26:37;;;;;;;17.77;3.40;;;13.80;99.90;;;;;;6216425;23;20016;-80
2021/03/14 08:29:09;;;;;;;13.80;3.50;;;13.90;99.90;;;;;;6243854;23;20320;-76
2021/03/14 08:31:47;;;;;;;22.20;3.00;;;13.90;99.90;;;;;;6244060;23;20004;-81
2021/03/14 08:34:19;;;;;;;18.98;3.85;;;13.80;99.90;;;;;;6217705;23;20004;-80
2021/03/14 08:36:45;;;;;;;12.48;3.03;;;13.80;99.90;;;;;;6244080;23;20016;-78
2021/03/14 08:39:34;;;;;;;23.27;4.68;;;13.80;99.90;;;;;;6243618;23;20004;-81
2021/03/14 08:42:02;;;;;;;16.08;3.53;;;13.80;99.90;;;;;;6243417;23;20008;-82
2021/03/14 08:44:41;;;;;;;20.15;3.40;;;13.80;99.90;;;;;;6226150;23;20016;-80
2021/03/14 08:47:10;;;;;;;19.73;3.58;;;13.90;99.90;;;;;;6244420;22;20000;-78
2021/03/14 08:49:39;;;;;;;25.77;4.10;;;14.10;99.90;;;;;;6244659;22;20008;-78
2021/03/14 08:52:06;;;;;;;18.52;4.15;;;14.40;99.90;;;;;;6244562;22;20004;-79
2021/03/14 08:54:54;;;;;;;14.30;3.40;;;14.60;99.90;;;;;;6243038;22;20008;-79
2021/03/14 08:57:19;;;;;;;16.42;4.55;;;14.70;99.90;;;;;;6243821;22;20433;-79
2021/03/14 08:59:53;;;;;;;16.58;4.03;;;14.70;99.90;;;;;;6244181;22;20003;-80
2021/03/14 09:02:32;;;;;;;15.10;3.40;;;14.70;99.90;;;;;;6243401;22;20425;-76
2021/03/14 09:05:19;;;;;;;23.35;4.07;;;14.70;99.90;;;;;;6244703;22;20015;-79
2021/03/14 09:07:56;;;;;;;27.25;3.65;;;14.60;99.90;;;;;;6244702;22;20083;-78
2021/03/14 09:10:22;;;;;;;17.90;3.92;;;14.60;99.90;;;;;;6244327;22;20341;-79
2021/03/14 09:13:00;;;;;;;22.58;4.00;;;14.50;99.90;;;;;;6243907;23;20008;-74
2021/03/14 09:15:26;;;;;;;18.92;3.97;;;14.40;99.90;;;;;;6242854;22;20031;-76
2021/03/14 09:17:56;;;;;;;15.57;4.05;;;14.30;99.90;;;;;;6243058;23;20329;-82
2021/03/14 09:20:22;;;;;;;19.55;3.40;;;14.30;99.90;;;;;;6241196;23;20378;-80
2021/03/14 09:22:47;;;;;;;24.02;3.70;;;14.20;99.90;;;;;;6243682;22;20011;-77
2021/03/14 09:25:15;;;;;;;17.60;4.38;;;14.20;99.90;;;;;;6243538;23;20000;-75
2021/03/14 09:27:44;;;;;;;23.40;3.80;;;14.20;99.90;;;;;;6244030;22;20004;-77
2021/03/14 09:30:23;;;;;;;22.35;5.82;;;14.30;99.90;;;;;;6242920;22;20008;-84
2021/03/14 09:33:00;;;;;;;20.23;4.18;;;14.30;99.90;;;;;;6243279;22;20024;-83
2021/03/14 09:35:30;;;;;;;14.05;3.63;;;14.20;99.90;;;;;;6243429;22;20004;-82
2021/03/14 09:37:59;;;;;;;17.10;3.95;;;14.20;99.90;;;;;;6242980;22;20442;-80
2021/03/14 09:40:24;;;;;;;15.77;4.43;;;14.20;99.90;;;;;;6243537;22;20430;-77
2021/03/14 09:43:08;;;;;;;54.22;23.15;;;14.20;99.90;;;;;;6243804;22;20004;-79
2021/03/14 09:45:35;;;;;;;18.42;3.88;;;14.20;99.90;;;;;;6242133;22;20338;-75
2021/03/14 09:48:13;;;;;;;61.00;23.15;;;14.10;99.90;;;;;;6243643;23;20001;-78
2021/03/14 09:50:44;;;;;;;23.75;6.32;;;14.10;99.90;;;;;;6244155;23;20528;-80
2021/03/14 09:53:11;;;;;;;48.67;16.63;;;14.00;99.90;;;;;;6242369;23;20008;-78
2021/03/14 09:55:42;;;;;;;46.92;15.40;;;14.10;99.90;;;;;;6243359;23;19997;-79
2021/03/14 09:58:22;;;;;;;33.87;9.77;;;14.10;99.90;;;;;;6243833;23;20066;-80
2021/03/14 10:00:49;;;;;;;21.58;5.15;;;14.20;99.90;;;;;;6245536;23;20337;-78
2021/03/14 10:03:22;;;;;;;33.38;4.13;;;14.30;99.90;;;;;;6245834;23;20039;-77
2021/03/14 10:05:51;;;;;;;21.75;4.53;;;14.30;99.90;;;;;;6246400;23;20035;-80
2021/03/14 10:08:18;;;;;;;21.85;3.72;;;14.40;99.90;;;;;;6246583;23;20008;-78
2021/03/14 10:10:46;;;;;;;18.13;4.85;;;14.50;99.90;;;;;;6246071;23;20410;-80
2021/03/14 10:13:12;;;;;;;23.35;3.92;;;14.50;99.90;;;;;;6246078;23;20000;-79
2021/03/14 10:15:38;;;;;;;20.17;4.07;;;14.50;99.90;;;;;;6245221;23;20322;-75
2021/03/14 10:18:05;;;;;;;14.15;4.15;;;14.40;99.90;;;;;;6243285;23;20015;-75
2021/03/14 10:20:31;;;;;;;13.38;3.50;;;14.40;99.90;;;;;;6239524;23;20046;-78
2021/03/14 10:23:03;;;;;;;22.92;3.85;;;14.40;99.90;;;;;;6245222;23;20289;-78
2021/03/14 10:25:33;;;;;;;21.73;3.95;;;14.40;99.90;;;;;;6240940;23;20027;-77
2021/03/14 10:28:10;;;;;;;23.35;5.75;;;14.30;99.90;;;;;;6241991;23;20035;-78
2021/03/14 10:30:38;;;;;;;21.30;5.78;;;14.30;99.90;;;;;;6243066;23;20024;-78
2021/03/14 10:33:04;;;;;;;24.67;8.15;;;14.30;99.90;;;;;;6242916;23;20106;-80
2021/03/14 10:35:31;;;;;;;27.63;4.95;;;14.30;99.90;;;;;;6243758;23;20576;-79
2021/03/14 10:37:56;;;;;;;18.48;3.88;;;14.30;99.90;;;;;;6216433;23;20089;-77
2021/03/14 10:40:24;;;;;;;30.23;4.82;;;14.30;99.90;;;;;;6242831;23;20067;-79
2021/03/14 10:42:52;;;;;;;16.52;4.78;;;14.20;99.90;;;;;;6243172;23;20336;-77
2021/03/14 10:45:21;;;;;;;17.60;3.78;;;14.30;99.90;;;;;;6243138;23;20023;-79
2021/03/14 10:47:58;;;;;;;10.88;3.03;;;14.30;99.90;;;;;;6243245;23;20050;-80
2021/03/14 10:50:29;;;;;;;27.10;3.72;;;14.20;99.90;;;;;;6242915;23;20007;-80
2021/03/14 10:53:17;;;;;;;35.30;4.93;;;14.10;99.90;;;;;;6241855;23;20000;-79
2021/03/14 10:55:44;;;;;;;34.63;4.82;;;13.80;99.90;;;;;;6243836;23;20447;-78
2021/03/14 10:58:18;;;;;;;44.95;4.25;;;13.60;99.90;;;;;;6242762;23;20004;-78
2021/03/14 11:00:49;;;;;;;23.67;3.85;;;13.30;99.90;;;;;;6243294;23;20007;-77
2021/03/14 11:03:29;;;;;;;22.35;4.65;;;13.20;99.90;;;;;;6244246;23;20015;-78
2021/03/14 11:06:14;;;;;;;25.50;4.18;;;13.10;99.90;;;;;;6242772;23;20079;-78
2021/03/14 11:09:03;;;;;;;23.50;4.00;;;13.00;99.90;;;;;;6242861;23;20087;-82
2021/03/14 11:11:44;;;;;;;26.38;3.38;;;12.80;99.90;;;;;;6242444;23;20000;-79
2021/03/14 11:14:30;;;;;;;12.70;3.30;;;12.70;99.90;;;;;;6240725;23;20327;-76
2021/03/14 11:17:13;;;;;;;11.05;3.10;;;12.40;99.90;;;;;;6240632;23;20027;-81
2021/03/14 11:19:41;;;;;;;7.65;1.73;;;12.20;99.90;;;;;;6242913;23;20322;-77
2021/03/14 11:22:07;;;;;;;7.65;1.75;;;12.10;99.90;;;;;;6241864;23;20068;-81
2021/03/14 11:24:34;;;;;;;11.32;2.50;;;12.10;99.90;;;;;;6244101;23;20574;-80
2021/03/14 11:27:00;;;;;;;20.10;2.80;;;12.00;99.90;;;;;;6243784;23;20007;-80
2021/03/14 11:29:27;;;;;;;20.27;4.30;;;12.00;99.90;;;;;;6244408;23;19996;-80
2021/03/14 11:31:53;;;;;;;11.82;3.80;;;12.00;99.90;;;;;;6244264;23;20004;-81
2021/03/14 11:34:20;;;;;;;13.20;2.80;;;12.00;99.90;;;;;;6217330;23;20011;-78
2021/03/14 11:36:46;;;;;;;21.88;3.50;;;12.00;99.90;;;;;;6216530;23;20039;-81
2021/03/14 11:39:12;;;;;;;24.08;3.58;;;12.00;99.90;;;;;;6243691;23;20008;-79
2021/03/14 11:41:38;;;;;;;12.93;2.85;;;11.90;99.90;;;;;;6243659;23;20004;-78
2021/03/14 11:44:05;;;;;;;16.73;3.88;;;11.80;99.90;;;;;;6243563;23;20091;-79
2021/03/14 11:46:30;;;;;;;8.48;3.35;;;11.60;99.90;;;;;;6243879;23;20074;-79
2021/03/14 11:48:56;;;;;;;7.15;2.45;;;11.50;99.90;;;;;;6243194;23;20012;-80
2021/03/14 11:51:22;;;;;;;14.05;3.33;;;11.50;99.90;;;;;;6242582;23;20000;-76
2021/03/14 11:53:48;;;;;;;10.13;1.95;;;11.50;99.90;;;;;;6242057;23;20004;-79
2021/03/14 11:56:14;;;;;;;15.20;2.78;;;11.30;99.90;;;;;;6242891;23;20067;-78
2021/03/14 11:58:40;;;;;;;14.40;2.67;;;11.30;99.90;;;;;;6243254;23;20047;-79
2021/03/14 12:01:06;;;;;;;13.10;3.67;;;11.20;99.90;;;;;;6243541;23;20004;-79
2021/03/14 12:03:32;;;;;;;14.52;4.30;;;11.20;99.90;;;;;;6243409;23;20376;-78
2021/03/14 12:05:58;;;;;;;11.00;3.90;;;11.20;99.90;;;;;;6242437;23;20311;-76
2021/03/14 12:08:24;;;;;;;18.13;5.00;;;11.20;99.90;;;;;;6243105;23;19997;-78
2021/03/14 12:10:50;;;;;;;19.65;8.18;;;11.10;99.90;;;;;;6242702;23;20086;-78
2021/03/14 12:13:15;;;;;;;20.85;7.60;;;11.10;99.90;;;;;;6243198;23;20318;-78
2021/03/14 12:15:41;;;;;;;19.70;5.70;;;11.00;99.90;;;;;;6243413;23;20138;-78
2021/03/14 12:18:07;;;;;;;4.28;1.90;;;11.00;99.90;;;;;;6243395;23;20019;-78
2021/03/14 12:20:33;;;;;;;1.55;1.10;;;10.60;99.90;;;;;;6244156;23;20026;-77
2021/03/14 12:22:59;;;;;;;9.07;3.00;;;10.00;99.90;;;;;;6244343;23;20079;-78
2021/03/14 12:25:25;;;;;;;2.00;1.58;;;9.40;99.90;;;;;;6244433;23;19996;-78
2021/03/14 12:27:51;;;;;;;1.55;1.30;;;8.80;99.90;;;;;;6243910;23;20019;-77
2021/03/14 12:30:18;;;;;;;2.00;1.80;;;8.20;99.90;;;;;;6243570;23;20126;-78
2021/03/14 12:32:44;;;;;;;2.90;1.70;;;7.80;99.90;;;;;;6243237;23;20074;-77
2021/03/14 12:35:11;;;;;;;2.38;1.20;;;7.50;99.90;;;;;;6241979;23;20455;-78
2021/03/14 12:37:36;;;;;;;2.05;1.10;;;7.30;99.90;;;;;;6242583;23;20008;-77
2021/03/14 12:40:03;;;;;;;1.10;1.10;;;7.00;99.90;;;;;;6242517;23;19996;-77
2021/03/14 12:42:29;;;;;;;3.58;1.10;;;6.70;99.90;;;;;;6242622;23;20453;-76
2021/03/14 12:44:54;;;;;;;2.58;1.40;;;6.50;99.90;;;;;;6243186;23;20068;-75
2021/03/14 12:47:20;;;;;;;2.63;2.17;;;6.30;99.90;;;;;;6242770;23;20003;-75